Time;durP1;ratioP1;P1;durP2;ratioP2;P2;SDS_P1;SDS_P2;PMS_P1;PMS_P2;Temp;Humidity;BMP_temperature;BMP_pressure;BME280_temperature;BME280_humidity;BME280_pressure;Samples;Min_cycle;Max_cycle;Signal;HPM_P1;HPM_P2
2024/04/03 03:28:33;;;;;;;1.70;1.57;;;12.70;99.90;;;;;;5077057;22;20879;-82
2024/04/03 03:30:59;;;;;;;2.90;1.60;;;12.70;99.90;;;;;;5030181;28;20766;-84
2024/04/03 03:33:25;;;;;;;4.23;1.60;;;12.70;99.90;;;;;;4998945;28;21069;-84
2024/04/03 03:35:52;;;;;;;2.60;1.40;;;12.70;99.90;;;;;;5034810;28;20415;-84
2024/04/03 03:38:18;;;;;;;3.47;1.70;;;12.70;99.90;;;;;;5010182;28;20562;-83
2024/04/03 03:40:44;;;;;;;3.13;1.83;;;12.70;99.90;;;;;;5024173;28;20521;-83
2024/04/03 03:43:13;;;;;;;2.00;1.40;;;12.80;99.90;;;;;;5047068;28;20586;-83
2024/04/03 03:45:45;;;;;;;2.90;1.77;;;12.70;99.90;;;;;;5024200;28;20438;-83
2024/04/03 03:48:12;;;;;;;3.03;1.60;;;12.80;99.90;;;;;;5009453;28;20535;-83
2024/04/03 03:53:23;;;;;;;3.00;1.50;;;12.80;99.90;;;;;;5044379;28;20452;-83
2024/04/03 03:55:49;;;;;;;2.50;1.50;;;12.80;99.90;;;;;;5013669;28;20465;-83
2024/04/03 03:58:18;;;;;;;3.37;1.87;;;12.80;99.90;;;;;;5029812;28;20443;-83
2024/04/03 04:00:44;;;;;;;4.27;1.90;;;12.80;99.90;;;;;;5016898;28;20450;-83
2024/04/03 04:03:09;;;;;;;2.60;1.80;;;12.80;99.90;;;;;;5023114;28;20445;-83
2024/04/03 04:05:35;;;;;;;5.23;1.80;;;12.80;99.90;;;;;;5005696;28;20528;-81
2024/04/03 04:08:05;;;;;;;2.53;1.40;;;12.80;99.90;;;;;;5047993;28;20419;-83
2024/04/03 04:10:31;;;;;;;3.10;1.90;;;12.80;99.90;;;;;;5029301;28;20435;-83
2024/04/03 04:12:57;;;;;;;6.10;1.70;;;12.80;99.90;;;;;;5034250;28;21237;-83
2024/04/03 04:15:23;;;;;;;2.90;1.80;;;12.80;99.90;;;;;;5010770;28;20459;-83
2024/04/03 04:17:55;;;;;;;2.13;1.40;;;12.70;99.90;;;;;;5001354;28;20903;-82
2024/04/03 04:20:23;;;;;;;3.40;2.00;;;12.80;99.90;;;;;;5017536;28;20458;-83
2024/04/03 04:22:49;;;;;;;3.57;2.17;;;12.80;99.90;;;;;;5033846;28;20474;-83
2024/04/03 04:25:15;;;;;;;3.63;1.83;;;12.80;99.90;;;;;;5039564;28;20423;-84
2024/04/03 04:27:41;;;;;;;3.00;1.60;;;12.80;99.90;;;;;;5017119;28;20191;-83
2024/04/03 04:30:12;;;;;;;2.70;1.43;;;12.80;99.90;;;;;;4990268;28;20920;-83
2024/04/03 04:32:40;;;;;;;3.67;1.70;;;12.80;99.90;;;;;;5038175;28;20450;-83
2024/04/03 04:35:09;;;;;;;2.43;1.70;;;12.80;99.90;;;;;;5023137;28;20426;-84
2024/04/03 04:37:37;;;;;;;3.23;1.50;;;12.80;99.90;;;;;;5021831;28;20921;-83
2024/04/03 04:40:05;;;;;;;2.20;1.63;;;12.80;99.90;;;;;;5035899;28;20477;-82
2024/04/03 04:42:31;;;;;;;3.50;1.90;;;12.80;99.90;;;;;;5015977;28;20209;-84
2024/04/03 04:45:00;;;;;;;5.20;1.90;;;12.80;99.90;;;;;;5019145;28;20439;-83
2024/04/03 04:47:28;;;;;;;4.27;1.43;;;12.80;99.90;;;;;;5003137;28;20433;-84
2024/04/03 04:49:54;;;;;;;2.40;1.70;;;12.80;99.90;;;;;;5025911;28;20417;-85
2024/04/03 04:52:19;;;;;;;3.30;1.83;;;12.80;99.90;;;;;;5036139;28;20427;-83
2024/04/03 04:54:48;;;;;;;2.70;2.30;;;12.80;99.90;;;;;;5025142;28;20879;-85
2024/04/03 04:57:16;;;;;;;3.57;1.60;;;12.80;99.90;;;;;;5022052;28;20437;-85
2024/04/03 04:59:42;;;;;;;1.53;1.37;;;12.70;99.90;;;;;;5010461;28;20525;-85
2024/04/03 05:02:08;;;;;;;3.23;1.70;;;12.70;99.90;;;;;;5023095;28;20467;-84
2024/04/03 05:04:33;;;;;;;3.47;2.07;;;12.80;99.90;;;;;;5017359;28;20460;-84
2024/04/03 05:07:02;;;;;;;5.93;2.10;;;12.70;99.90;;;;;;5022937;28;20193;-85
2024/04/03 05:09:28;;;;;;;3.63;2.20;;;12.70;99.90;;;;;;5033020;28;20545;-84
2024/04/03 05:11:54;;;;;;;4.83;2.10;;;12.80;99.90;;;;;;5009675;28;20879;-83
2024/04/03 05:14:20;;;;;;;2.80;1.90;;;12.70;99.90;;;;;;5030408;28;20438;-84
2024/04/03 05:16:49;;;;;;;3.47;1.53;;;12.70;99.90;;;;;;5017167;28;20505;-84
2024/04/03 05:19:17;;;;;;;2.37;1.60;;;12.70;99.90;;;;;;5004466;28;20454;-83
2024/04/03 05:21:45;;;;;;;1.50;1.20;;;12.70;99.90;;;;;;5039610;28;20577;-84
2024/04/03 05:24:11;;;;;;;2.07;1.43;;;12.70;99.90;;;;;;5021308;28;20468;-84
2024/04/03 05:26:39;;;;;;;1.97;1.50;;;12.70;99.90;;;;;;5013075;28;20430;-84
2024/04/03 05:29:05;;;;;;;3.57;1.63;;;12.80;99.90;;;;;;5001115;28;20443;-84
2024/04/03 05:31:32;;;;;;;5.27;1.60;;;12.70;99.90;;;;;;5003391;28;20641;-84
2024/04/03 05:34:01;;;;;;;3.73;1.80;;;12.80;99.90;;;;;;5001508;28;20474;-84
2024/04/03 05:36:30;;;;;;;3.23;1.53;;;12.70;99.90;;;;;;5032768;28;20735;-85
2024/04/03 05:38:56;;;;;;;2.80;1.93;;;12.70;99.90;;;;;;5032646;28;20484;-83
2024/04/03 05:41:40;;;;;;;4.40;1.63;;;12.70;99.90;;;;;;5025026;28;20913;-83
2024/04/03 05:44:08;;;;;;;3.70;1.97;;;12.70;99.90;;;;;;5000335;28;20458;-84
2024/04/03 05:46:34;;;;;;;2.50;1.60;;;12.70;99.90;;;;;;5022174;28;20427;-84
2024/04/03 05:49:00;;;;;;;3.57;1.77;;;12.70;99.90;;;;;;5015924;28;20514;-83
2024/04/03 05:51:26;;;;;;;2.40;1.43;;;12.70;99.90;;;;;;5032616;28;20441;-84
2024/04/03 05:53:54;;;;;;;2.33;1.60;;;12.70;99.90;;;;;;5015158;28;20424;-84
2024/04/03 05:56:23;;;;;;;2.20;1.47;;;12.70;99.90;;;;;;5002137;28;20575;-83
2024/04/03 05:58:55;;;;;;;2.30;1.47;;;12.70;99.90;;;;;;5016669;28;20744;-84
2024/04/03 06:01:24;;;;;;;2.83;1.63;;;12.70;99.90;;;;;;5015877;28;20493;-83
2024/04/03 06:03:50;;;;;;;2.87;1.50;;;12.70;99.90;;;;;;5028983;28;20419;-84
2024/04/03 06:06:16;;;;;;;3.40;1.47;;;12.70;99.90;;;;;;4999957;28;20448;-84
2024/04/03 06:08:42;;;;;;;2.60;1.80;;;12.70;99.90;;;;;;5016340;28;20480;-84
2024/04/03 06:11:08;;;;;;;3.83;1.57;;;12.70;99.90;;;;;;5038623;28;20463;-84
2024/04/03 06:13:34;;;;;;;3.03;1.67;;;12.70;99.90;;;;;;5016397;28;20935;-86
2024/04/03 06:16:02;;;;;;;1.90;1.60;;;12.70;99.90;;;;;;5019340;28;20441;-89
2024/04/03 06:18:28;;;;;;;3.57;2.00;;;12.70;99.90;;;;;;5005662;28;20232;-85
2024/04/03 06:20:56;;;;;;;2.80;2.10;;;12.70;99.90;;;;;;5032436;28;21102;-85
2024/04/03 06:23:25;;;;;;;3.50;1.83;;;12.70;99.90;;;;;;5001869;28;20442;-87
2024/04/03 06:25:51;;;;;;;4.23;2.40;;;12.70;99.90;;;;;;4999641;28;20470;-86
2024/04/03 06:28:17;;;;;;;3.27;1.73;;;12.70;99.90;;;;;;5015535;28;20466;-85
2024/04/03 06:30:43;;;;;;;2.97;1.90;;;12.70;99.90;;;;;;5030996;28;20506;-85
2024/04/03 06:33:08;;;;;;;4.20;1.50;;;12.70;99.90;;;;;;4998478;28;20455;-86
2024/04/03 06:35:34;;;;;;;3.83;1.60;;;12.70;99.90;;;;;;5034204;28;20546;-87
2024/04/03 06:38:05;;;;;;;5.47;1.70;;;12.70;99.90;;;;;;5037988;28;20431;-92
2024/04/03 06:40:33;;;;;;;5.63;1.87;;;12.70;99.90;;;;;;5006822;28;20443;-91
2024/04/03 06:43:03;;;;;;;3.27;1.73;;;12.70;99.90;;;;;;5018550;28;20490;-91
2024/04/03 06:45:30;;;;;;;5.60;1.97;;;12.70;99.90;;;;;;5031585;28;20432;-92
2024/04/03 06:47:58;;;;;;;5.40;1.93;;;12.70;99.90;;;;;;5020374;28;20446;-90
2024/04/03 06:50:24;;;;;;;3.10;1.90;;;12.70;99.90;;;;;;5019818;28;20439;-92
2024/04/03 06:52:50;;;;;;;2.80;1.60;;;12.70;99.90;;;;;;5026143;28;20429;-90
2024/04/03 06:55:16;;;;;;;4.70;2.10;;;12.70;99.90;;;;;;5020483;28;20506;-89
2024/04/03 06:57:45;;;;;;;2.43;1.57;;;12.70;99.90;;;;;;5012101;28;20954;-90
2024/04/03 07:00:12;;;;;;;3.87;1.60;;;12.70;99.90;;;;;;5018646;28;20467;-89
2024/04/03 07:02:40;;;;;;;3.70;1.90;;;12.70;99.90;;;;;;5023742;28;20569;-86
2024/04/03 07:05:06;;;;;;;6.80;2.20;;;12.70;99.90;;;;;;5012260;28;20437;-88
2024/04/03 07:07:32;;;;;;;5.83;1.73;;;12.70;99.90;;;;;;5026467;28;20436;-89
2024/04/03 07:10:00;;;;;;;4.10;1.80;;;12.70;99.90;;;;;;5023278;28;20430;-86
2024/04/03 07:12:26;;;;;;;2.67;1.43;;;12.70;99.90;;;;;;5029070;28;20444;-88
2024/04/03 07:14:54;;;;;;;2.70;1.63;;;12.70;99.90;;;;;;5024210;28;20995;-87
2024/04/03 07:17:20;;;;;;;2.23;1.33;;;12.70;99.90;;;;;;5005792;28;20461;-88
2024/04/03 07:19:47;;;;;;;3.60;2.03;;;12.70;99.90;;;;;;5020138;28;20771;-89
2024/04/03 07:22:12;;;;;;;4.57;1.97;;;12.70;99.90;;;;;;5005584;28;20467;-88
2024/04/03 07:24:39;;;;;;;3.37;1.77;;;12.70;99.90;;;;;;5026781;28;21278;-88
2024/04/03 07:27:04;;;;;;;2.97;1.70;;;12.70;99.90;;;;;;5003007;28;20451;-88
2024/04/03 07:29:30;;;;;;;4.67;1.97;;;12.70;99.90;;;;;;5019116;28;20434;-89
2024/04/03 07:31:59;;;;;;;5.10;1.73;;;12.70;99.90;;;;;;5007613;28;20488;-88
2024/04/03 07:34:25;;;;;;;4.90;2.07;;;12.70;99.90;;;;;;5003233;28;20512;-88
2024/04/03 07:36:53;;;;;;;3.70;1.50;;;12.70;99.90;;;;;;5004526;28;20432;-87
2024/04/03 07:39:20;;;;;;;3.77;1.83;;;12.70;99.90;;;;;;5014365;28;20585;-86
2024/04/03 07:41:48;;;;;;;3.20;1.77;;;12.70;99.90;;;;;;5019358;28;20481;-87
2024/04/03 07:44:17;;;;;;;4.40;1.87;;;12.70;99.90;;;;;;5019399;28;20454;-87
2024/04/03 07:46:48;;;;;;;2.40;1.87;;;12.70;99.90;;;;;;5019248;28;20523;-86
2024/04/03 07:49:14;;;;;;;2.87;1.70;;;12.70;99.90;;;;;;5001612;28;20447;-87
2024/04/03 07:51:46;;;;;;;2.40;1.40;;;12.70;99.90;;;;;;5028638;28;20498;-85
2024/04/03 07:54:11;;;;;;;3.83;1.90;;;12.70;99.90;;;;;;5020988;28;20435;-88
2024/04/03 07:56:37;;;;;;;3.60;1.87;;;12.70;99.90;;;;;;5032333;28;20587;-87
2024/04/03 07:59:04;;;;;;;3.73;1.77;;;12.70;99.90;;;;;;5009316;28;20434;-89
2024/04/03 08:01:32;;;;;;;4.47;1.63;;;12.70;99.90;;;;;;5035899;28;20550;-85
2024/04/03 08:03:58;;;;;;;4.93;1.90;;;12.70;99.90;;;;;;5019669;28;20477;-85
2024/04/03 08:06:24;;;;;;;3.57;1.90;;;12.70;99.90;;;;;;5025478;28;20439;-85
2024/04/03 08:08:51;;;;;;;4.10;1.80;;;12.70;99.90;;;;;;5007893;28;20454;-85
2024/04/03 08:11:16;;;;;;;6.63;2.30;;;12.70;99.90;;;;;;5019250;28;20451;-85
2024/04/03 08:13:44;;;;;;;4.27;1.90;;;12.70;99.90;;;;;;5018066;28;20447;-85
2024/04/03 08:16:10;;;;;;;5.33;2.00;;;12.70;99.90;;;;;;5009700;28;20902;-85
2024/04/03 08:18:36;;;;;;;4.60;2.23;;;12.70;99.90;;;;;;5020217;28;20458;-84
2024/04/03 08:21:06;;;;;;;2.83;1.73;;;12.70;99.90;;;;;;5017855;28;20427;-84
2024/04/03 08:23:39;;;;;;;4.30;2.40;;;12.70;99.90;;;;;;5012928;28;20438;-88
2024/04/03 08:26:11;;;;;;;6.40;1.50;;;12.70;99.90;;;;;;5010467;28;20984;-87
2024/04/03 08:28:44;;;;;;;7.27;2.03;;;12.70;99.90;;;;;;5009957;28;20439;-88
2024/04/03 08:31:15;;;;;;;3.53;2.03;;;12.70;99.90;;;;;;5009057;28;20468;-87
2024/04/03 08:33:43;;;;;;;3.07;1.73;;;12.70;99.90;;;;;;5002069;28;21010;-87
2024/04/03 08:36:13;;;;;;;3.77;2.13;;;12.70;99.90;;;;;;5022109;28;21115;-87
2024/04/03 08:38:39;;;;;;;6.30;2.30;;;12.70;99.90;;;;;;5017686;28;20431;-86
2024/04/03 08:41:05;;;;;;;5.70;1.63;;;12.70;99.90;;;;;;5001058;28;20474;-86
2024/04/03 08:43:33;;;;;;;3.00;1.83;;;12.70;99.90;;;;;;5022797;28;20977;-86
2024/04/03 08:45:59;;;;;;;3.23;1.97;;;12.70;99.90;;;;;;5031442;28;20427;-87
2024/04/03 08:48:27;;;;;;;3.43;1.80;;;12.70;99.90;;;;;;5018440;28;20431;-86
2024/04/03 08:50:56;;;;;;;4.03;1.93;;;12.80;99.90;;;;;;5007974;28;20492;-86
2024/04/03 08:53:24;;;;;;;9.13;2.00;;;12.70;99.90;;;;;;5031685;28;20478;-87
2024/04/03 08:55:55;;;;;;;4.77;1.50;;;12.70;99.90;;;;;;5025037;28;20526;-89
2024/04/03 08:58:22;;;;;;;7.20;1.90;;;12.70;99.90;;;;;;5003561;28;20446;-89
2024/04/03 09:00:49;;;;;;;2.77;1.77;;;12.70;99.90;;;;;;5029588;28;20443;-87
2024/04/03 09:03:16;;;;;;;4.17;2.10;;;12.70;99.90;;;;;;5003177;28;20442;-86
2024/04/03 09:05:43;;;;;;;2.83;1.83;;;12.80;99.90;;;;;;5025382;28;21023;-86
2024/04/03 09:08:10;;;;;;;3.10;1.67;;;12.80;99.90;;;;;;5008970;28;20431;-89
2024/04/03 09:10:43;;;;;;;4.77;1.90;;;12.80;99.90;;;;;;5030284;28;20496;-87
2024/04/03 09:13:10;;;;;;;3.50;2.00;;;12.80;99.90;;;;;;5001301;28;20431;-89
2024/04/03 09:15:37;;;;;;;5.00;2.33;;;12.80;99.90;;;;;;4999031;28;20471;-89
2024/04/03 09:18:06;;;;;;;4.20;1.90;;;12.80;99.90;;;;;;5010365;28;20455;-88
2024/04/03 09:25:07;;;;;;;5.20;2.00;;;12.80;99.90;;;;;;5053030;22;20666;-40
2024/04/03 09:27:35;;;;;;;2.83;1.87;;;12.80;99.90;;;;;;5025698;28;20888;-40
2024/04/03 09:30:04;;;;;;;3.63;1.67;;;12.80;99.90;;;;;;5043599;28;20436;-40
2024/04/03 09:32:33;;;;;;;2.73;1.57;;;12.80;99.90;;;;;;5049283;28;20442;-39
2024/04/03 09:34:59;;;;;;;3.53;1.83;;;12.80;99.90;;;;;;5052933;28;21039;-39
2024/04/03 09:37:27;;;;;;;3.70;1.80;;;12.80;99.90;;;;;;5034509;28;20461;-39
2024/04/03 09:39:53;;;;;;;2.47;1.70;;;12.80;99.90;;;;;;5018788;28;20607;-40
2024/04/03 09:42:24;;;;;;;4.03;2.07;;;12.80;99.90;;;;;;5050197;28;20462;-40
2024/04/03 09:44:58;;;;;;;3.07;2.00;;;12.80;99.90;;;;;;5054302;28;20422;-41
2024/04/03 09:47:25;;;;;;;4.33;1.70;;;12.80;99.90;;;;;;5032987;28;20429;-41
2024/04/03 09:49:55;;;;;;;3.63;1.60;;;12.90;99.90;;;;;;5038711;28;21231;-37
2024/04/03 09:52:21;;;;;;;3.53;1.83;;;12.90;99.90;;;;;;5036399;28;20811;-41
2024/04/03 09:54:49;;;;;;;2.50;1.60;;;12.90;99.90;;;;;;5018380;28;20439;-39
2024/04/03 09:57:17;;;;;;;3.20;1.90;;;12.90;99.90;;;;;;5032898;28;20515;-38
2024/04/03 09:59:49;;;;;;;3.20;1.90;;;12.90;99.90;;;;;;5052235;28;21026;-40
2024/04/03 10:02:16;;;;;;;4.00;1.83;;;12.90;99.90;;;;;;5049728;28;20497;-40
2024/04/03 10:04:42;;;;;;;5.83;2.00;;;12.90;99.90;;;;;;5035178;28;20457;-41
2024/04/03 10:07:16;;;;;;;1.63;1.53;;;12.90;99.90;;;;;;5049058;28;20415;-41
2024/04/03 10:09:43;;;;;;;4.30;1.90;;;13.00;99.90;;;;;;5048900;28;20526;-39
2024/04/03 10:12:16;;;;;;;4.00;2.17;;;12.90;99.90;;;;;;5018348;28;20531;-40
2024/04/03 10:14:47;;;;;;;3.47;1.50;;;12.90;99.90;;;;;;5054580;28;20425;-41
2024/04/03 10:17:15;;;;;;;2.03;1.60;;;12.90;99.90;;;;;;5056555;28;20430;-42
2024/04/03 10:19:42;;;;;;;2.17;1.30;;;12.90;99.90;;;;;;5034448;28;21434;-40
2024/04/03 10:22:14;;;;;;;3.07;1.73;;;12.90;99.90;;;;;;5038886;28;20504;-40
2024/04/03 10:24:51;;;;;;;5.70;1.97;;;13.00;99.90;;;;;;5034446;28;20437;-41
2024/04/03 10:27:18;;;;;;;2.60;1.57;;;13.00;99.90;;;;;;5051326;28;20559;-41
2024/04/03 10:29:44;;;;;;;1.90;1.50;;;13.00;99.90;;;;;;5039808;28;20443;-41
2024/04/03 10:32:14;;;;;;;2.93;1.60;;;13.00;99.90;;;;;;5022142;28;21183;-40
2024/04/03 10:34:43;;;;;;;2.23;1.63;;;13.00;99.90;;;;;;5057728;28;21248;-40
2024/04/03 10:37:10;;;;;;;2.20;1.87;;;13.00;99.90;;;;;;5048978;28;20441;-41
2024/04/03 10:39:45;;;;;;;5.17;1.40;;;13.00;99.90;;;;;;5061565;28;20679;-41
2024/04/03 10:42:14;;;;;;;1.97;1.40;;;13.00;99.90;;;;;;5060652;28;21385;-41
2024/04/03 10:44:41;;;;;;;3.10;1.60;;;13.00;99.90;;;;;;5034358;28;20458;-41
2024/04/03 10:47:09;;;;;;;3.10;2.00;;;13.00;99.90;;;;;;5052611;28;20501;-40
2024/04/03 10:49:36;;;;;;;1.90;1.30;;;13.00;99.90;;;;;;5052453;28;20999;-39
2024/04/03 10:52:01;;;;;;;1.63;1.50;;;13.00;99.90;;;;;;5056839;28;20947;-41
2024/04/03 10:54:27;;;;;;;3.20;1.50;;;13.00;99.90;;;;;;5057621;28;20448;-41
2024/04/03 10:56:59;;;;;;;3.20;1.60;;;13.10;99.90;;;;;;5034509;28;20432;-40
2024/04/03 10:59:28;;;;;;;2.53;1.63;;;13.00;99.90;;;;;;5052525;28;20441;-41
2024/04/03 11:01:56;;;;;;;3.93;1.50;;;13.00;99.90;;;;;;5038319;28;20468;-40
2024/04/03 11:04:26;;;;;;;2.50;1.43;;;13.00;99.90;;;;;;5057303;28;20908;-41
2024/04/03 11:06:57;;;;;;;2.33;1.50;;;13.10;99.90;;;;;;5055279;28;21130;-37
2024/04/03 11:09:25;;;;;;;2.27;1.30;;;13.10;99.90;;;;;;5031212;28;21082;-41
2024/04/03 11:12:00;;;;;;;2.27;1.57;;;13.10;99.90;;;;;;5053879;28;21332;-42
2024/04/03 11:14:26;;;;;;;1.47;1.37;;;13.10;99.90;;;;;;5032330;28;20428;-39
2024/04/03 11:16:52;;;;;;;2.63;1.23;;;13.10;99.90;;;;;;5053549;28;20432;-41
2024/04/03 11:19:20;;;;;;;2.23;1.57;;;13.10;99.90;;;;;;5037841;28;20546;-42
2024/04/03 11:21:46;;;;;;;3.60;1.23;;;13.10;99.90;;;;;;5019106;28;20506;-40
2024/04/03 11:24:12;;;;;;;1.47;1.10;;;13.10;99.90;;;;;;5053862;28;20509;-40
2024/04/03 11:26:43;;;;;;;2.33;1.33;;;13.10;99.90;;;;;;5052656;28;20558;-41
2024/04/03 11:29:25;;;;;;;2.50;1.10;;;13.20;99.90;;;;;;5054891;28;20437;-42
2024/04/03 11:31:51;;;;;;;1.33;0.93;;;13.20;99.90;;;;;;5016830;28;20426;-41
2024/04/03 11:34:20;;;;;;;2.00;1.60;;;13.20;99.90;;;;;;5054565;28;20946;-41
2024/04/03 11:36:52;;;;;;;2.70;1.37;;;13.20;99.90;;;;;;5020597;28;20447;-41
2024/04/03 11:39:19;;;;;;;1.73;1.10;;;13.20;99.90;;;;;;5049520;28;20500;-41
2024/04/03 11:41:50;;;;;;;1.63;1.43;;;13.20;99.90;;;;;;5058578;28;20556;-40
2024/04/03 11:44:19;;;;;;;2.30;1.37;;;13.20;99.90;;;;;;5041235;28;20476;-41
2024/04/03 11:46:45;;;;;;;1.90;1.40;;;13.20;99.90;;;;;;5051826;28;20446;-41
2024/04/03 11:49:13;;;;;;;1.30;1.07;;;13.20;99.90;;;;;;5048186;28;20447;-39
2024/04/03 11:51:39;;;;;;;1.43;1.00;;;13.20;99.90;;;;;;5016833;28;20435;-43
2024/04/03 11:54:07;;;;;;;2.43;1.10;;;13.20;99.90;;;;;;5033076;28;20487;-43
2024/04/03 11:56:35;;;;;;;1.30;1.20;;;13.20;99.90;;;;;;5000351;28;20457;-43
2024/04/03 11:59:03;;;;;;;1.00;0.90;;;13.20;99.90;;;;;;5051443;28;21276;-43
2024/04/03 12:01:29;;;;;;;2.50;1.17;;;13.30;99.90;;;;;;5054561;28;21118;-41
2024/04/03 12:03:56;;;;;;;1.97;1.20;;;13.30;99.90;;;;;;5055244;28;21202;-40
2024/04/03 12:06:22;;;;;;;1.83;1.30;;;13.30;99.90;;;;;;5054501;28;20425;-40
2024/04/03 12:08:51;;;;;;;2.03;1.40;;;13.30;99.90;;;;;;5052032;28;20446;-41
2024/04/03 12:11:17;;;;;;;1.40;1.10;;;13.30;99.90;;;;;;5052019;28;20447;-42
2024/04/03 12:13:45;;;;;;;1.37;1.00;;;13.30;99.90;;;;;;5056173;28;20430;-42
2024/04/03 12:16:13;;;;;;;1.10;1.00;;;13.30;99.90;;;;;;5054939;28;20433;-43
2024/04/03 12:19:01;;;;;;;1.27;0.93;;;13.30;99.90;;;;;;5037221;28;20657;-42
2024/04/03 12:21:27;;;;;;;1.00;0.90;;;13.30;99.90;;;;;;5027666;28;20554;-40
2024/04/03 12:23:53;;;;;;;2.00;1.10;;;13.30;99.90;;;;;;5031880;28;20482;-41
2024/04/03 12:26:25;;;;;;;3.63;1.10;;;13.30;99.90;;;;;;5050030;28;20490;-41
2024/04/03 12:28:52;;;;;;;2.27;0.93;;;13.30;99.90;;;;;;5034926;28;20453;-42
2024/04/03 12:31:18;;;;;;;1.83;0.90;;;13.30;99.90;;;;;;5052892;28;20425;-42
2024/04/03 12:33:46;;;;;;;1.03;0.90;;;13.30;99.90;;;;;;5054861;28;20428;-43
2024/04/03 12:36:14;;;;;;;1.10;0.87;;;13.40;99.90;;;;;;5031508;28;20591;-41
2024/04/03 12:38:47;;;;;;;1.83;1.10;;;13.30;99.90;;;;;;5054797;28;20442;-42
2024/04/03 12:41:14;;;;;;;1.67;1.30;;;13.30;99.90;;;;;;5051511;28;20430;-39
2024/04/03 12:43:40;;;;;;;1.03;0.93;;;13.40;99.90;;;;;;5055488;28;20544;-42
2024/04/03 12:46:10;;;;;;;1.13;0.90;;;13.40;99.90;;;;;;5034570;28;20457;-40
2024/04/03 12:48:39;;;;;;;1.50;0.97;;;13.40;99.90;;;;;;5055791;28;20437;-41
2024/04/03 12:51:07;;;;;;;1.20;1.10;;;13.40;99.90;;;;;;5036343;28;20442;-38
2024/04/03 12:53:36;;;;;;;2.60;0.80;;;13.40;99.90;;;;;;5052104;28;20443;-39
2024/04/03 12:56:03;;;;;;;1.27;1.00;;;13.40;99.90;;;;;;5051994;28;20921;-40
2024/04/03 12:58:30;;;;;;;1.47;0.90;;;13.40;99.90;;;;;;5003660;28;20457;-40
2024/04/03 13:01:02;;;;;;;1.20;1.10;;;13.40;99.90;;;;;;5052062;28;20438;-40
2024/04/03 13:03:28;;;;;;;0.80;0.80;;;13.40;99.90;;;;;;5034023;28;20529;-40
2024/04/03 13:05:57;;;;;;;2.07;1.20;;;13.40;99.90;;;;;;5049941;28;20437;-39
2024/04/03 13:08:26;;;;;;;1.53;0.93;;;13.40;99.90;;;;;;5028610;28;20456;-40
2024/04/03 13:10:52;;;;;;;1.40;1.10;;;13.40;99.90;;;;;;5031965;28;20430;-42
2024/04/03 13:13:21;;;;;;;0.90;0.80;;;13.40;99.90;;;;;;5037250;28;20469;-43
2024/04/03 13:15:58;;;;;;;1.20;0.77;;;13.40;99.90;;;;;;5034526;28;20489;-37
2024/04/03 13:18:24;;;;;;;1.63;1.00;;;13.40;99.90;;;;;;5046837;28;20437;-41
2024/04/03 13:20:50;;;;;;;0.80;0.80;;;13.40;99.90;;;;;;5049602;28;21124;-40
2024/04/03 13:23:17;;;;;;;1.30;1.20;;;13.40;99.90;;;;;;5035260;28;20469;-38
2024/04/03 13:25:46;;;;;;;1.20;0.90;;;13.40;99.90;;;;;;5054303;28;20487;-36
2024/04/03 13:28:12;;;;;;;1.20;1.10;;;13.40;99.90;;;;;;5053747;28;20461;-38
2024/04/03 13:30:40;;;;;;;4.00;1.33;;;13.40;99.90;;;;;;5030560;28;20434;-39
2024/04/03 13:33:06;;;;;;;1.40;1.03;;;13.40;99.90;;;;;;5053913;28;20452;-40
2024/04/03 13:35:36;;;;;;;0.87;0.80;;;13.40;99.90;;;;;;5047577;28;20460;-41
2024/04/03 13:38:02;;;;;;;1.53;0.90;;;13.40;99.90;;;;;;5050017;28;20426;-41
2024/04/03 13:40:31;;;;;;;0.90;0.77;;;13.40;99.90;;;;;;5052755;28;20800;-39
2024/04/03 13:42:57;;;;;;;1.37;0.70;;;13.40;99.90;;;;;;5051623;28;20469;-40
2024/04/03 13:45:23;;;;;;;1.13;1.03;;;13.40;99.90;;;;;;5049948;28;20426;-40
2024/04/03 13:47:50;;;;;;;1.23;0.93;;;13.50;99.90;;;;;;5047329;28;20500;-39
2024/04/03 13:50:17;;;;;;;1.87;1.20;;;13.50;99.90;;;;;;5011605;28;21095;-41
2024/04/03 13:52:46;;;;;;;1.33;1.03;;;13.50;99.90;;;;;;5051739;28;20440;-40
2024/04/03 13:55:12;;;;;;;1.27;0.87;;;13.50;99.90;;;;;;5051783;28;21387;-40
2024/04/03 13:57:39;;;;;;;2.47;0.97;;;13.50;99.90;;;;;;5034685;28;20514;-40
2024/04/03 14:00:09;;;;;;;4.63;1.20;;;13.50;99.90;;;;;;5031815;28;20441;-41
2024/04/03 14:02:36;;;;;;;2.77;1.20;;;13.50;99.90;;;;;;5049878;28;20477;-41
2024/04/03 14:05:04;;;;;;;0.93;0.83;;;13.50;99.90;;;;;;5033834;28;20953;-41
2024/04/03 14:07:35;;;;;;;1.20;1.10;;;13.50;99.90;;;;;;5032546;28;20463;-38
2024/04/03 14:10:02;;;;;;;0.93;0.80;;;13.50;99.90;;;;;;5035379;28;20450;-37
2024/04/03 14:12:31;;;;;;;3.27;0.80;;;13.50;99.90;;;;;;5048808;28;20455;-40
2024/04/03 14:14:56;;;;;;;1.10;1.00;;;13.50;99.90;;;;;;5030465;28;20423;-41
2024/04/03 14:17:28;;;;;;;3.07;0.80;;;13.50;99.90;;;;;;5051909;28;20439;-40
2024/04/03 14:19:57;;;;;;;1.47;1.17;;;13.50;99.90;;;;;;5049341;28;20883;-40
2024/04/03 14:22:24;;;;;;;2.30;1.20;;;13.50;99.90;;;;;;5051662;28;20959;-36
2024/04/03 14:24:50;;;;;;;1.20;1.03;;;13.50;99.90;;;;;;5029816;28;20889;-36
2024/04/03 14:27:15;;;;;;;3.43;1.17;;;13.50;99.90;;;;;;5053647;28;20426;-39
2024/04/03 14:29:41;;;;;;;1.10;1.00;;;13.50;99.90;;;;;;5052831;28;20499;-41
2024/04/03 14:32:08;;;;;;;1.30;0.87;;;13.50;99.90;;;;;;5054127;28;20429;-40
2024/04/03 14:34:34;;;;;;;1.60;1.00;;;13.50;99.90;;;;;;5034543;28;21247;-40
2024/04/03 14:37:07;;;;;;;0.90;0.83;;;13.50;99.90;;;;;;5031911;28;20448;-42
2024/04/03 14:39:36;;;;;;;0.93;0.83;;;13.50;99.90;;;;;;5033832;28;20441;-42
2024/04/03 14:42:02;;;;;;;1.27;1.00;;;13.50;99.90;;;;;;5020050;28;20483;-41
2024/04/03 14:44:28;;;;;;;1.13;0.90;;;13.60;99.90;;;;;;5051756;28;20435;-41
2024/04/03 14:46:56;;;;;;;1.20;0.90;;;13.50;99.90;;;;;;5029924;28;20795;-41
2024/04/03 14:49:23;;;;;;;1.17;1.07;;;13.60;99.90;;;;;;5050009;28;20441;-40
2024/04/03 14:51:51;;;;;;;2.07;1.00;;;13.60;99.90;;;;;;5052616;28;20448;-40
2024/04/03 14:54:21;;;;;;;1.23;1.10;;;13.50;99.90;;;;;;5050494;28;20421;-42
2024/04/03 14:56:49;;;;;;;1.00;0.90;;;13.60;99.90;;;;;;5048922;28;20452;-39
2024/04/03 14:59:17;;;;;;;1.10;1.00;;;13.60;99.90;;;;;;5055428;28;20480;-39
2024/04/03 15:01:50;;;;;;;1.97;1.00;;;13.60;99.90;;;;;;5036860;28;20465;-40
2024/04/03 15:04:16;;;;;;;2.73;0.97;;;13.60;99.90;;;;;;5055529;28;20433;-41
2024/04/03 15:06:43;;;;;;;1.20;0.90;;;13.70;99.90;;;;;;5038960;28;20441;-39
2024/04/03 15:09:15;;;;;;;2.47;1.10;;;13.70;99.90;;;;;;5052642;28;20771;-42
2024/04/03 15:11:44;;;;;;;1.40;1.00;;;13.70;99.90;;;;;;4999219;28;21253;-42
2024/04/03 15:14:10;;;;;;;1.00;0.90;;;13.70;99.90;;;;;;5056812;28;20512;-38
2024/04/03 15:16:37;;;;;;;1.00;0.90;;;13.70;99.90;;;;;;5039416;28;21222;-42
2024/04/03 15:19:06;;;;;;;0.97;0.70;;;13.70;99.90;;;;;;5030784;28;20997;-40
2024/04/03 15:21:34;;;;;;;1.13;0.90;;;13.70;99.90;;;;;;5053381;28;20457;-42
2024/04/03 15:24:00;;;;;;;1.83;1.20;;;13.70;99.90;;;;;;5038756;28;20452;-41
2024/04/03 15:26:27;;;;;;;1.27;1.00;;;13.80;99.90;;;;;;5039213;28;20441;-41
2024/04/03 15:28:54;;;;;;;1.10;1.00;;;13.70;99.90;;;;;;5027489;23;20577;-34
2024/04/03 15:31:19;;;;;;;2.07;1.30;;;13.80;99.90;;;;;;5032743;28;20478;-33
2024/04/03 15:33:46;;;;;;;1.00;0.90;;;13.80;99.90;;;;;;5052293;28;20421;-35
2024/04/03 15:36:14;;;;;;;1.80;0.97;;;13.80;99.90;;;;;;5038986;28;20434;-36
2024/04/03 15:38:40;;;;;;;2.10;1.00;;;13.80;99.90;;;;;;5038921;28;20495;-38
2024/04/03 15:41:07;;;;;;;2.10;1.20;;;13.80;99.90;;;;;;5013639;28;20418;-34
2024/04/03 15:43:35;;;;;;;1.57;1.13;;;13.90;99.90;;;;;;5049402;28;20423;-37
2024/04/03 15:46:02;;;;;;;1.10;0.93;;;13.90;99.90;;;;;;5035025;28;20422;-41
2024/04/03 15:48:31;;;;;;;1.60;0.97;;;13.90;99.90;;;;;;5038549;28;20434;-41
2024/04/03 15:50:57;;;;;;;1.00;0.90;;;13.90;99.90;;;;;;5058068;28;20420;-42
2024/04/03 15:53:31;;;;;;;0.80;0.80;;;13.90;99.90;;;;;;5058155;28;20423;-43
2024/04/03 15:56:03;;;;;;;1.77;1.07;;;13.90;99.90;;;;;;5058674;28;20503;-43
2024/04/03 15:58:32;;;;;;;1.67;0.87;;;13.90;99.90;;;;;;5061219;28;20457;-40
2024/04/03 16:01:00;;;;;;;1.10;1.00;;;13.90;99.90;;;;;;5059367;28;20418;-40
2024/04/03 16:03:27;;;;;;;2.27;0.87;;;13.90;99.90;;;;;;5034262;28;20470;-43
2024/04/03 16:05:53;;;;;;;1.20;1.10;;;13.90;99.90;;;;;;5056829;28;20903;-43
2024/04/03 16:08:19;;;;;;;1.10;1.00;;;13.90;99.90;;;;;;5064447;28;20449;-40
2024/04/03 16:10:46;;;;;;;1.10;1.00;;;13.90;99.90;;;;;;5064116;28;20509;-38
2024/04/03 16:13:13;;;;;;;1.20;1.07;;;14.00;99.90;;;;;;5026928;28;20462;-36
2024/04/03 16:15:41;;;;;;;1.33;1.20;;;14.00;99.90;;;;;;5013145;28;20795;-40
2024/04/03 16:18:07;;;;;;;0.97;0.80;;;13.90;99.90;;;;;;5038797;28;20423;-38
2024/04/03 16:20:38;;;;;;;1.50;0.97;;;13.90;99.90;;;;;;5026986;28;20457;-39
2024/04/03 16:23:11;;;;;;;2.40;1.20;;;14.00;99.90;;;;;;5044934;28;21035;-43
2024/04/03 16:25:41;;;;;;;1.53;1.03;;;13.90;99.90;;;;;;5100407;28;20453;-30